Caldas de Reis, Spain
Current Conditions -  °F | °C
As of 12:00 AM on Thursday 18 Dec 2014 (Local Time) from LEST Reporting Station
Overcast Overcast  
Wind Chill: 46°   Ceiling: 2200
Heat Index: 46°   Visibility: 6mi
Dew Point: 46°   Wind: 1mph
Humidity: 100%   Direction: NA
Pressure: 30.45"   Gusts: NA
Location:  42.6°N, 8.63°W
Report Text: LEST 172300Z VRB01KT 9000 FEW002 SCT014 OVC022 08/08 Q1031 TEMPO 3000 BR BKN004
Loading
Personal Weather Stations






























Interactive Weather Map New forecast layout! Learn more

10-Day Weather Forecast

Advertisements
Track Severe Weather on mobile